createdAt,value
2019-06-07T00:00:48.146Z,6.87
2019-06-07T00:03:29.691Z,6.03
2019-06-07T00:06:02.617Z,5.80
2019-06-07T00:08:39.492Z,8.00
2019-06-07T00:11:20.301Z,8.80
2019-06-07T00:13:54.350Z,7.80
2019-06-07T00:16:31.110Z,6.65
2019-06-07T00:19:09.715Z,6.03
2019-06-07T00:24:24.370Z,6.20
2019-06-07T00:27:01.175Z,5.50
2019-06-07T00:29:38.139Z,6.00
2019-06-07T00:32:19.120Z,6.67
2019-06-07T00:34:53.674Z,6.40
2019-06-07T00:37:29.977Z,6.67
2019-06-07T00:40:16.163Z,6.80
2019-06-07T00:42:44.573Z,6.83
2019-06-07T00:45:24.467Z,6.28
2019-06-07T00:48:00.184Z,6.67
2019-06-07T00:50:37.610Z,7.15
2019-06-07T00:53:26.936Z,6.95
2019-06-07T00:55:54.971Z,6.28
2019-06-07T00:58:31.428Z,6.15
2019-06-07T01:01:08.350Z,6.30
2019-06-07T01:03:44.895Z,6.90
2019-06-07T01:06:23.094Z,6.15
2019-06-07T01:08:59.351Z,6.60
2019-06-07T01:11:35.828Z,6.03
2019-06-07T01:14:14.407Z,6.87
2019-06-07T01:16:57.084Z,6.55
2019-06-07T01:19:28.424Z,6.60
2019-06-07T01:22:05.914Z,6.62
2019-06-07T01:24:42.786Z,6.35
2019-06-07T01:27:22.537Z,6.55
2019-06-07T01:29:57.120Z,6.92
2019-06-07T01:32:38.819Z,6.30
2019-06-07T01:35:16.569Z,6.78
2019-06-07T01:37:52.920Z,6.47
2019-06-07T01:40:32.576Z,7.12
2019-06-07T01:43:07.456Z,6.35
2019-06-07T01:45:44.240Z,6.60
2019-06-07T01:48:23.121Z,6.53
2019-06-07T01:50:57.953Z,6.03
2019-06-07T01:53:34.273Z,6.20
2019-06-07T01:56:10.977Z,5.80
2019-06-07T01:58:47.269Z,6.17
2019-06-07T02:01:25.900Z,5.28
2019-06-07T02:04:02.480Z,5.80
2019-06-07T02:06:39.900Z,6.28
2019-06-07T02:09:16.303Z,5.80
2019-06-07T02:11:52.697Z,4.83
2019-06-07T02:14:30.631Z,5.22
2019-06-07T02:17:06.944Z,5.33
2019-06-07T02:19:43.404Z,5.50
2019-06-07T02:22:21.819Z,6.47
2019-06-07T02:25:34.402Z,6.70
2019-06-07T02:27:36.675Z,5.22
2019-06-07T02:32:51.718Z,5.47
2019-06-07T02:35:40.533Z,5.60
2019-06-07T02:38:12.836Z,9.18
2019-06-07T02:40:52.652Z,6.12
2019-06-07T02:43:36.219Z,5.37
2019-06-07T02:46:35.282Z,4.95
2019-06-07T02:49:05.190Z,4.30
2019-06-07T02:51:42.229Z,3.85
2019-06-07T02:54:19.692Z,3.70
2019-06-07T02:56:58.994Z,3.75
2019-06-07T03:00:04.380Z,3.62
2019-06-07T03:02:13.550Z,3.42
2019-06-07T03:04:50.646Z,3.25
2019-06-07T03:07:30.033Z,3.58
2019-06-07T03:10:06.424Z,3.75
2019-06-07T03:12:45.982Z,3.70
2019-06-07T03:15:39.258Z,3.95
2019-06-07T03:18:29.008Z,3.90
2019-06-07T03:21:05.826Z,3.70
2019-06-07T03:23:44.490Z,3.27
2019-06-07T03:26:21.553Z,3.50
2019-06-07T03:28:58.571Z,3.40
2019-06-07T03:31:45.399Z,3.15
2019-06-07T03:34:13.399Z,3.10
2019-06-07T03:36:49.869Z,3.02
2019-06-07T03:39:28.405Z,3.10
2019-06-07T03:42:06.672Z,3.30
2019-06-07T03:44:42.085Z,3.20
2019-06-07T03:47:18.770Z,3.10
2019-06-07T03:49:55.595Z,3.37
2019-06-07T03:52:35.551Z,3.22
2019-06-07T03:55:21.549Z,3.15
2019-06-07T03:58:30.880Z,7.22
2019-06-07T04:00:39.502Z,3.50
2019-06-07T04:03:32.758Z,3.10
2019-06-07T04:05:53.436Z,4.00
2019-06-07T04:08:30.867Z,2.92
2019-06-07T04:11:10.866Z,3.33
2019-06-07T04:13:47.378Z,2.90
2019-06-07T04:16:24.149Z,3.10
2019-06-07T04:19:01.912Z,3.00
2019-06-07T04:21:42.515Z,3.15
2019-06-07T04:24:17.805Z,3.42
2019-06-07T04:26:54.535Z,3.15
2019-06-07T04:29:33.799Z,2.80
2019-06-07T04:32:17.057Z,3.30
2019-06-07T04:34:53.281Z,3.42
2019-06-07T04:37:31.002Z,3.25
2019-06-07T04:40:08.286Z,3.40
2019-06-07T04:42:46.216Z,3.02
2019-06-07T04:45:33.804Z,3.45
2019-06-07T04:48:02.609Z,3.70
2019-06-07T04:50:43.501Z,3.50
2019-06-07T04:53:17.737Z,3.25
2019-06-07T04:55:54.516Z,3.17
2019-06-07T04:58:31.474Z,3.33
2019-06-07T05:01:26.402Z,3.10
2019-06-07T05:03:46.677Z,3.52
2019-06-07T05:06:23.642Z,3.02
2019-06-07T05:09:00.312Z,3.35
2019-06-07T05:11:43.340Z,3.12
2019-06-07T05:14:16.449Z,3.25
2019-06-07T05:16:52.858Z,3.10
2019-06-07T05:19:30.585Z,2.90
2019-06-07T05:22:06.609Z,3.08
2019-06-07T05:24:43.877Z,2.90
2019-06-07T05:27:20.737Z,3.00
2019-06-07T05:30:09.607Z,3.15
2019-06-07T05:32:34.987Z,3.10
2019-06-07T05:35:12.431Z,3.02
2019-06-07T05:37:48.671Z,4.47
2019-06-07T05:40:36.547Z,3.85
2019-06-07T05:43:14.270Z,3.85
2019-06-07T05:45:50.833Z,3.90
2019-06-07T05:48:27.563Z,4.00
2019-06-07T05:51:03.970Z,4.25
2019-06-07T05:53:42.128Z,3.37
2019-06-07T05:56:18.686Z,3.17
2019-06-07T05:58:55.565Z,3.30
2019-06-07T06:01:58.961Z,3.05
2019-06-07T06:04:09.898Z,3.55
2019-06-07T06:06:47.458Z,3.90
2019-06-07T06:09:24.010Z,3.35
2019-06-07T06:12:02.662Z,2.75
2019-06-07T06:14:42.246Z,3.10
2019-06-07T06:17:16.883Z,2.87
2019-06-07T06:19:53.602Z,3.12
2019-06-07T06:22:30.207Z,2.80
2019-06-07T06:30:24.561Z,3.00
2019-06-07T06:33:00.717Z,3.00
2019-06-07T06:35:37.852Z,2.98
2019-06-07T06:38:13.795Z,3.30
2019-06-07T06:41:05.291Z,3.17
2019-06-07T06:43:28.184Z,2.90
2019-06-07T06:46:04.598Z,3.05
2019-06-07T06:48:45.493Z,3.30
2019-06-07T06:51:18.594Z,3.60
2019-06-07T06:53:55.445Z,3.12
2019-06-07T06:56:32.089Z,3.30
2019-06-07T07:01:49.452Z,3.25
2019-06-07T07:04:24.434Z,3.00
2019-06-07T07:07:01.206Z,3.22
2019-06-07T07:09:38.232Z,2.98
2019-06-07T07:12:15.089Z,3.80
2019-06-07T07:14:55.143Z,3.60
2019-06-07T07:17:47.575Z,3.10
2019-06-07T07:20:08.138Z,3.30
2019-06-07T07:22:47.891Z,3.02
2019-06-07T07:25:23.233Z,4.37
2019-06-07T07:28:00.203Z,3.58
2019-06-07T07:30:57.104Z,3.62
2019-06-07T07:34:21.067Z,3.72
2019-06-07T07:36:28.655Z,2.45
2019-06-07T07:38:55.763Z,2.90
2019-06-07T07:41:27.775Z,2.55
2019-06-07T07:44:07.049Z,2.50
2019-06-07T07:46:43.342Z,2.77
2019-06-07T07:49:20.528Z,2.40
2019-06-07T07:51:58.941Z,2.42
2019-06-07T07:54:34.895Z,2.90
2019-06-07T07:57:12.734Z,2.95
2019-06-07T08:00:06.091Z,3.22
2019-06-07T08:02:27.090Z,4.00
2019-06-07T08:05:21.127Z,4.15
2019-06-07T08:07:41.836Z,3.92
2019-06-07T08:10:18.507Z,3.80
2019-06-07T08:13:14.184Z,3.72
2019-06-07T08:15:33.300Z,4.40
2019-06-07T08:18:09.698Z,3.45
2019-06-07T08:21:04.965Z,3.80
2019-06-07T08:23:23.983Z,3.58
2019-06-07T08:26:01.247Z,4.05
2019-06-07T08:28:39.207Z,4.12
2019-06-07T08:31:16.033Z,4.70
2019-06-07T08:33:55.654Z,5.10
2019-06-07T08:36:41.329Z,4.97
2019-06-07T08:39:10.067Z,5.17
2019-06-07T08:41:59.809Z,5.87
2019-06-07T08:44:25.678Z,4.60
2019-06-07T08:47:18.907Z,4.28
2019-06-07T08:49:39.646Z,3.65
2019-06-07T08:52:16.534Z,3.85
2019-06-07T08:54:54.921Z,5.78
2019-06-07T08:57:31.101Z,5.50
2019-06-07T09:00:42.180Z,5.45
2019-06-07T09:02:46.005Z,4.65
2019-06-07T09:05:22.672Z,3.70
2019-06-07T09:08:23.461Z,3.70
2019-06-07T09:10:39.400Z,3.50
2019-06-07T09:13:16.295Z,4.55
2019-06-07T09:15:55.292Z,4.70
2019-06-07T09:18:42.232Z,3.10
2019-06-07T09:21:09.941Z,3.35
2019-06-07T09:23:46.941Z,2.67
2019-06-07T09:26:23.963Z,2.95
2019-06-07T09:29:03.378Z,2.30
2019-06-07T09:31:52.031Z,2.65
2019-06-07T09:34:16.631Z,2.77
2019-06-07T09:36:54.072Z,3.10
2019-06-07T09:39:30.457Z,3.17
2019-06-07T09:42:09.944Z,3.30
2019-06-07T09:44:44.677Z,3.02
2019-06-07T09:47:31.951Z,2.95
2019-06-07T09:50:04.044Z,2.90
2019-06-07T09:52:57.079Z,3.12
2019-06-07T09:55:23.738Z,3.00
2019-06-07T09:57:52.897Z,2.67
2019-06-07T10:00:41.274Z,3.00
2019-06-07T10:03:26.262Z,2.62
2019-06-07T10:06:08.783Z,2.67
2019-06-07T10:09:57.114Z,2.62
2019-06-07T10:11:20.708Z,2.58
2019-06-07T10:13:58.304Z,2.80
2019-06-07T10:16:46.207Z,2.80
2019-06-07T10:19:17.071Z,2.70
2019-06-07T10:21:53.538Z,2.60
2019-06-07T10:24:30.164Z,2.90
2019-06-07T10:27:07.878Z,2.83
2019-06-07T10:29:44.631Z,2.65
2019-06-07T10:32:20.946Z,2.72
2019-06-07T10:34:58.066Z,3.10
2019-06-07T10:37:34.346Z,2.65
2019-06-07T10:40:11.459Z,3.12
2019-06-07T10:42:48.152Z,2.92
2019-06-07T10:45:24.795Z,2.80
2019-06-07T10:48:03.452Z,3.22
2019-06-07T10:50:41.340Z,3.85
2019-06-07T10:53:17.803Z,3.90
2019-06-07T10:55:54.242Z,3.70
2019-06-07T10:58:30.928Z,4.35
2019-06-07T11:01:09.359Z,4.15
2019-06-07T11:03:46.126Z,4.00
2019-06-07T11:06:22.912Z,4.30
2019-06-07T11:08:59.621Z,5.20
2019-06-07T11:11:36.147Z,4.60
2019-06-07T11:14:13.071Z,4.78
2019-06-07T11:16:49.586Z,5.05
2019-06-07T11:19:26.169Z,4.60
2019-06-07T11:22:02.648Z,4.85
2019-06-07T11:24:39.460Z,4.22
2019-06-07T11:27:16.498Z,4.40
2019-06-07T11:29:53.387Z,5.22
2019-06-07T11:32:30.257Z,7.62
2019-06-07T11:35:06.430Z,9.93
2019-06-07T11:37:42.969Z,8.93
2019-06-07T11:40:35.035Z,7.50
2019-06-07T11:42:58.130Z,5.85
2019-06-07T11:45:34.832Z,4.28
2019-06-07T11:48:11.416Z,5.42
2019-06-07T11:50:48.386Z,8.85
2019-06-07T11:53:27.045Z,7.12
2019-06-07T11:56:03.599Z,6.85
2019-06-07T11:58:40.470Z,7.42
2019-06-07T12:01:18.346Z,7.70
2019-06-07T12:03:57.604Z,7.28
2019-06-07T12:06:32.524Z,8.78
2019-06-07T12:09:12.332Z,8.98
2019-06-07T12:11:48.931Z,8.98
2019-06-07T12:14:25.320Z,8.48
2019-06-07T12:17:03.365Z,8.85
2019-06-07T12:19:39.705Z,7.33
2019-06-07T12:22:16.250Z,7.95
2019-06-07T12:24:53.757Z,7.72
2019-06-07T12:27:30.584Z,7.35
2019-06-07T12:30:11.140Z,7.92
2019-06-07T12:32:45.324Z,7.78
2019-06-07T12:35:22.266Z,7.75
2019-06-07T12:37:58.505Z,8.68
2019-06-07T12:40:34.612Z,9.28
2019-06-07T12:43:12.302Z,8.50
2019-06-07T12:45:49.529Z,9.13
2019-06-07T12:48:26.253Z,9.50
2019-06-07T12:51:03.059Z,9.25
2019-06-07T12:53:39.556Z,9.05
2019-06-07T12:56:15.639Z,9.03
2019-06-07T12:58:52.270Z,8.45
2019-06-07T13:01:29.315Z,8.23
2019-06-07T13:04:05.874Z,9.25
2019-06-07T13:06:42.228Z,8.58
2019-06-07T13:09:19.898Z,9.58
2019-06-07T13:11:56.655Z,9.30
2019-06-07T13:14:33.295Z,9.73
2019-06-07T13:17:09.823Z,9.33
2019-06-07T13:19:46.328Z,9.70
2019-06-07T13:22:24.282Z,9.15
2019-06-07T13:25:01.060Z,10.25
2019-06-07T13:27:37.541Z,11.50
2019-06-07T13:30:14.664Z,11.12
2019-06-07T13:32:51.240Z,11.10
2019-06-07T13:35:29.582Z,24.00
2019-06-07T13:38:06.195Z,110.68
2019-06-07T13:40:42.719Z,45.73
2019-06-07T13:43:19.643Z,52.20
2019-06-07T13:45:56.154Z,46.37
2019-06-07T13:48:32.807Z,44.70
2019-06-07T13:51:10.938Z,71.97
2019-06-07T13:53:47.735Z,74.32
2019-06-07T13:56:24.466Z,72.45
2019-06-07T13:59:00.720Z,59.27
2019-06-07T14:01:37.153Z,34.45
2019-06-07T14:04:18.814Z,34.58
2019-06-07T14:06:55.759Z,45.98
2019-06-07T14:09:32.550Z,36.15
2019-06-07T14:12:09.162Z,36.98
2019-06-07T14:14:45.233Z,31.95
2019-06-07T14:17:23.200Z,21.60
2019-06-07T14:19:59.802Z,18.15
2019-06-07T14:22:36.387Z,23.52
2019-06-07T14:25:14.584Z,20.52
2019-06-07T14:27:51.082Z,22.95
2019-06-07T14:30:30.517Z,20.77
2019-06-07T14:33:06.346Z,19.32
2019-06-07T14:35:42.566Z,20.10
2019-06-07T14:38:19.155Z,15.90
2019-06-07T14:40:56.171Z,13.30
2019-06-07T14:43:33.961Z,13.90
2019-06-07T14:46:10.597Z,14.03
2019-06-07T14:48:47.353Z,14.20
2019-06-07T14:51:24.713Z,13.78
2019-06-07T14:54:01.724Z,15.90
2019-06-07T14:56:38.569Z,18.30
2019-06-07T14:59:15.144Z,16.97
2019-06-07T15:01:51.606Z,18.32
2019-06-07T15:04:28.555Z,17.62
2019-06-07T15:07:05.334Z,17.60
2019-06-07T15:09:41.882Z,15.98
2019-06-07T15:12:24.979Z,16.75
2019-06-07T15:14:57.890Z,18.05
2019-06-07T15:17:35.403Z,18.23
2019-06-07T15:20:12.369Z,18.75
2019-06-07T15:22:48.548Z,18.48
2019-06-07T15:25:26.954Z,16.80
2019-06-07T15:28:03.691Z,16.23
2019-06-07T15:30:40.589Z,21.40
2019-06-07T15:33:17.378Z,20.90
2019-06-07T15:35:53.791Z,18.73
2019-06-07T15:38:33.100Z,14.20
2019-06-07T15:41:09.633Z,16.55
2019-06-07T15:43:51.371Z,18.12
2019-06-07T15:46:27.847Z,17.62
2019-06-07T15:49:05.568Z,18.82
2019-06-07T15:51:42.188Z,48.83
2019-06-07T15:54:19.031Z,27.05
2019-06-07T15:56:55.398Z,28.00
2019-06-07T15:59:33.111Z,26.87
2019-06-07T16:02:09.655Z,25.08
2019-06-07T16:04:46.228Z,20.32
2019-06-07T16:07:23.103Z,20.65
2019-06-07T16:09:59.739Z,18.40
2019-06-07T16:12:36.771Z,18.70
2019-06-07T16:15:14.910Z,14.90
2019-06-07T16:17:51.447Z,16.10
2019-06-07T16:20:28.076Z,14.68
2019-06-07T16:23:04.135Z,13.10
2019-06-07T16:25:42.064Z,13.88
2019-06-07T16:28:18.525Z,12.58
2019-06-07T16:30:55.417Z,13.45
2019-06-07T16:33:32.215Z,13.35
2019-06-07T16:36:09.036Z,11.90
2019-06-07T16:38:45.861Z,11.55
2019-06-07T16:41:23.819Z,11.88
2019-06-07T16:44:00.372Z,10.40
2019-06-07T16:46:38.695Z,10.88
2019-06-07T16:49:15.367Z,9.80
2019-06-07T16:51:51.459Z,11.10
2019-06-07T16:54:28.139Z,10.90
2019-06-07T16:57:04.547Z,11.03
2019-06-07T16:59:41.251Z,10.93
2019-06-07T17:02:18.891Z,10.98
2019-06-07T17:04:55.490Z,10.80
2019-06-07T17:07:32.095Z,10.98
2019-06-07T17:10:09.186Z,11.30
2019-06-07T17:12:46.956Z,11.35
2019-06-07T17:15:24.868Z,11.20
2019-06-07T17:18:02.532Z,10.72
2019-06-07T17:20:39.115Z,10.58
2019-06-07T17:23:15.752Z,10.35
2019-06-07T17:25:52.612Z,11.53
2019-06-07T17:28:30.076Z,11.48
2019-06-07T17:31:06.954Z,11.63
2019-06-07T17:33:43.973Z,11.63
2019-06-07T17:36:20.608Z,10.72
2019-06-07T17:38:57.282Z,13.62
2019-06-07T17:41:50.271Z,15.03
2019-06-07T17:44:11.705Z,12.93
2019-06-07T17:46:49.904Z,12.55
2019-06-07T17:49:25.911Z,13.93
2019-06-07T17:52:02.566Z,14.15
2019-06-07T17:54:39.259Z,14.18
2019-06-07T17:57:16.294Z,13.93
2019-06-07T17:59:53.699Z,13.35
2019-06-07T18:02:30.360Z,14.68
2019-06-07T18:05:07.175Z,15.13
2019-06-07T18:07:43.910Z,14.98
2019-06-07T18:10:25.872Z,14.53
2019-06-07T18:13:02.348Z,14.53
2019-06-07T18:15:51.732Z,16.50
2019-06-07T18:18:25.081Z,15.08
2019-06-07T18:21:01.655Z,15.35
2019-06-07T18:23:38.035Z,14.47
2019-06-07T18:26:14.464Z,14.28
2019-06-07T18:28:51.106Z,13.80
2019-06-07T18:31:27.476Z,13.80
2019-06-07T18:34:05.260Z,15.05
2019-06-07T18:36:41.872Z,14.43
2019-06-07T18:39:18.381Z,14.03
2019-06-07T18:41:55.389Z,15.58
2019-06-07T18:44:32.149Z,15.68
2019-06-07T18:47:09.107Z,15.15
2019-06-07T18:49:45.794Z,14.35
2019-06-07T18:52:26.179Z,13.08
2019-06-07T18:55:03.740Z,14.43
2019-06-07T18:57:39.905Z,14.60
2019-06-07T19:00:16.862Z,15.13
2019-06-07T19:02:54.111Z,15.88
2019-06-07T19:05:30.473Z,14.98
2019-06-07T19:08:07.064Z,14.15
2019-06-07T19:10:43.663Z,14.63
2019-06-07T19:13:20.564Z,16.90
2019-06-07T19:15:57.459Z,16.10
2019-06-07T19:18:33.978Z,19.12
2019-06-07T19:21:10.931Z,16.95
2019-06-07T19:23:47.737Z,16.12
2019-06-07T19:26:23.937Z,18.77
2019-06-07T19:29:00.950Z,19.20
2019-06-07T19:31:38.842Z,19.07
2019-06-07T19:34:15.509Z,20.45
2019-06-07T19:36:53.494Z,20.35
2019-06-07T19:39:30.243Z,20.50
2019-06-07T19:42:06.933Z,20.60
2019-06-07T19:44:53.180Z,20.17
2019-06-07T19:47:21.569Z,19.40
2019-06-07T19:49:58.786Z,21.05
2019-06-07T19:52:35.791Z,20.43
2019-06-07T19:55:12.709Z,18.77
2019-06-07T19:57:50.160Z,19.35
2019-06-07T20:00:27.022Z,19.30
2019-06-07T20:03:04.456Z,19.90
2019-06-07T20:05:41.055Z,18.48
2019-06-07T20:08:17.694Z,18.52
2019-06-07T20:10:54.426Z,19.10
2019-06-07T20:13:30.866Z,19.10
2019-06-07T20:16:07.312Z,17.87
2019-06-07T20:18:43.532Z,17.32
2019-06-07T20:21:20.489Z,18.82
2019-06-07T20:23:57.299Z,18.90
2019-06-07T20:26:33.730Z,18.42
2019-06-07T20:29:25.382Z,18.82
2019-06-07T20:31:47.769Z,17.55
2019-06-07T20:34:24.492Z,17.87
2019-06-07T20:37:03.408Z,17.75
2019-06-07T20:39:39.017Z,17.67
2019-06-07T20:42:15.591Z,17.98
2019-06-07T20:44:52.230Z,19.37
2019-06-07T20:47:28.357Z,17.70
2019-06-07T20:50:04.721Z,18.45
2019-06-07T20:52:40.851Z,20.02
2019-06-07T20:55:17.685Z,19.67
2019-06-07T20:57:54.291Z,18.75
2019-06-07T21:00:31.815Z,19.10
2019-06-07T21:03:09.487Z,18.30
2019-06-07T21:05:46.191Z,16.48
2019-06-07T21:08:22.389Z,17.57
2019-06-07T21:10:59.975Z,17.23
2019-06-07T21:13:36.629Z,18.00
2019-06-07T21:16:13.243Z,16.05
2019-06-07T21:18:49.783Z,15.55
2019-06-07T21:21:26.583Z,16.77
2019-06-07T21:24:04.569Z,16.12
2019-06-07T21:26:41.076Z,14.43
2019-06-07T21:29:17.849Z,15.98
2019-06-07T21:31:54.504Z,14.53
2019-06-07T21:34:31.297Z,13.43
2019-06-07T21:37:07.902Z,15.25
2019-06-07T21:39:44.692Z,15.08
2019-06-07T21:42:20.606Z,13.85
2019-06-07T21:44:57.150Z,14.98
2019-06-07T21:47:34.186Z,13.98
2019-06-07T21:50:12.798Z,14.65
2019-06-07T21:52:49.409Z,14.50
2019-06-07T21:55:26.087Z,16.75
2019-06-07T21:58:03.062Z,17.27
2019-06-07T22:01:20.644Z,16.62
2019-06-07T22:03:57.221Z,15.75
2019-06-07T22:06:33.273Z,17.75
2019-06-07T22:09:12.369Z,16.30
2019-06-07T22:11:49.511Z,16.45
2019-06-07T22:14:25.869Z,13.68
2019-06-07T22:17:04.010Z,14.75
2019-06-07T22:19:41.518Z,16.12
2019-06-07T22:22:18.044Z,14.55
2019-06-07T22:24:54.498Z,13.70
2019-06-07T22:27:31.200Z,13.25
2019-06-07T22:30:08.485Z,13.53
2019-06-07T22:32:45.222Z,15.53
2019-06-07T22:35:21.892Z,15.80
2019-06-07T22:37:59.409Z,16.40
2019-06-07T22:40:35.875Z,18.32
2019-06-07T22:43:12.302Z,17.02
2019-06-07T22:45:48.447Z,14.98
2019-06-07T22:48:25.137Z,13.55
2019-06-07T22:51:06.434Z,13.83
2019-06-07T22:53:46.964Z,14.50
2019-06-07T22:56:33.923Z,15.03
2019-06-07T22:59:13.714Z,14.45
2019-06-07T23:01:47.830Z,13.10
2019-06-07T23:04:24.597Z,14.58
2019-06-07T23:07:01.255Z,15.18
2019-06-07T23:09:37.906Z,15.03
2019-06-07T23:12:15.220Z,14.78
2019-06-07T23:14:51.785Z,15.18
2019-06-07T23:17:28.137Z,13.38
2019-06-07T23:20:04.762Z,13.78
2019-06-07T23:22:41.484Z,17.25
2019-06-07T23:25:22.310Z,15.40
2019-06-07T23:27:56.254Z,16.00
2019-06-07T23:30:33.018Z,15.25
2019-06-07T23:33:10.621Z,15.60
2019-06-07T23:35:47.455Z,16.48
2019-06-07T23:38:23.838Z,17.02
2019-06-07T23:41:00.080Z,16.60
2019-06-07T23:43:36.525Z,17.50
2019-06-07T23:46:13.411Z,19.80
2019-06-07T23:48:49.932Z,20.60
2019-06-07T23:51:26.419Z,22.10
2019-06-07T23:54:03.580Z,19.52
2019-06-07T23:56:40.223Z,17.35
2019-06-07T23:59:16.677Z,17.90
